Time;durP1;ratioP1;P1;durP2;ratioP2;P2;SDS_P1;SDS_P2;PMS_P1;PMS_P2;Temp;Humidity;BMP_temperature;BMP_pressure;BME280_temperature;BME280_humidity;BME280_pressure;Samples;Min_cycle;Max_cycle;Signal;HPM_P1;HPM_P2
2022/08/23 00:01:52;;;;;;;2.57;1.90;;;;;;;;;;5092933;28;20674;-79
2022/08/23 00:04:21;;;;;;;3.93;1.90;;;;;;;;;;5104371;28;20263;-79
2022/08/23 00:06:48;;;;;;;2.80;2.10;;;;;;;;;;5089537;28;20207;-78
2022/08/23 00:09:15;;;;;;;2.83;1.90;;;;;;;;;;5073246;28;20992;-78
2022/08/23 00:11:43;;;;;;;4.87;2.00;;;;;;;;;;5088785;28;20313;-78
2022/08/23 00:14:18;;;;;;;2.20;1.90;;;;;;;;;;5095546;28;20199;-78
2022/08/23 00:16:45;;;;;;;2.00;1.90;;;;;;;;;;5095534;28;20195;-78
2022/08/23 00:19:12;;;;;;;2.53;1.80;;;;;;;;;;5088537;28;21096;-79
2022/08/23 00:21:39;;;;;;;3.00;2.00;;;;;;;;;;5086649;28;20194;-79
2022/08/23 00:24:06;;;;;;;2.17;1.90;;;;;;;;;;5096255;28;20752;-79
2022/08/23 00:26:48;;;;;;;3.30;2.33;;;;;;;;;;5076582;28;20298;-78
2022/08/23 00:29:14;;;;;;;3.40;2.20;;;;;;;;;;5082077;28;20225;-78
2022/08/23 00:31:41;;;;;;;2.87;2.00;;;;;;;;;;5091118;28;20707;-78
2022/08/23 00:34:07;;;;;;;2.60;2.13;;;;;;;;;;5096798;28;20292;-78
2022/08/23 00:36:33;;;;;;;2.17;1.97;;;;;;;;;;5076885;28;20220;-79
2022/08/23 00:39:00;;;;;;;2.30;1.87;;;;;;;;;;5107620;28;20233;-78
2022/08/23 00:41:27;;;;;;;4.40;2.30;;;;;;;;;;5082738;27;20450;-79
2022/08/23 00:49:45;;;;;;;2.47;2.03;;;;;;;;;;5090868;28;20267;-79
2022/08/23 00:52:14;;;;;;;3.03;1.80;;;;;;;;;;5090508;28;20664;-78
2022/08/23 00:54:41;;;;;;;4.00;2.20;;;;;;;;;;5084234;28;20177;-78
2022/08/23 00:57:10;;;;;;;2.67;2.10;;;;;;;;;;5069308;28;20540;-78
2022/08/23 00:59:36;;;;;;;2.63;1.93;;;;;;;;;;5093041;28;20274;-79
2022/08/23 01:02:03;;;;;;;2.57;1.97;;;;;;;;;;5085423;28;20181;-79
2022/08/23 01:04:32;;;;;;;2.70;1.90;;;;;;;;;;5089998;28;20180;-78
2022/08/23 01:07:02;;;;;;;3.40;1.97;;;;;;;;;;5092173;28;20678;-79
2022/08/23 01:09:28;;;;;;;2.63;2.00;;;;;;;;;;5092800;28;20185;-79
2022/08/23 01:12:03;;;;;;;2.23;2.00;;;;;;;;;;5072166;28;20630;-79
2022/08/23 01:14:32;;;;;;;3.10;2.10;;;;;;;;;;5090388;28;20596;-78
2022/08/23 01:17:04;;;;;;;6.23;2.30;;;;;;;;;;5086010;28;20291;-79
2022/08/23 01:19:38;;;;;;;2.30;1.97;;;;;;;;;;5082022;28;20168;-78
2022/08/23 01:22:17;;;;;;;4.20;1.90;;;;;;;;;;5091688;28;20630;-80
2022/08/23 01:24:44;;;;;;;3.17;1.83;;;;;;;;;;5090891;28;20174;-78
2022/08/23 01:27:11;;;;;;;2.77;1.90;;;;;;;;;;5085836;28;20228;-79
2022/08/23 01:29:39;;;;;;;2.57;1.93;;;;;;;;;;5091704;28;20915;-78
2022/08/23 01:32:06;;;;;;;3.00;1.90;;;;;;;;;;5093229;28;20214;-79
2022/08/23 01:34:32;;;;;;;2.40;1.90;;;;;;;;;;5075741;28;20177;-78
2022/08/23 01:36:58;;;;;;;2.13;1.93;;;;;;;;;;5084913;28;20204;-78
2022/08/23 01:39:25;;;;;;;3.13;1.90;;;;;;;;;;5092468;28;20608;-79
2022/08/23 01:41:51;;;;;;;2.23;2.00;;;;;;;;;;5092049;28;20199;-80
2022/08/23 01:44:18;;;;;;;2.10;1.90;;;;;;;;;;5063262;28;20200;-78
2022/08/23 01:46:45;;;;;;;2.97;2.20;;;;;;;;;;5091818;28;20233;-78
2022/08/23 01:49:12;;;;;;;5.70;2.20;;;;;;;;;;5092292;28;20267;-79
2022/08/23 01:51:38;;;;;;;3.73;2.00;;;;;;;;;;5087042;28;20184;-78
2022/08/23 01:54:05;;;;;;;2.40;1.93;;;;;;;;;;5084765;28;20227;-78
2022/08/23 01:56:32;;;;;;;2.90;2.10;;;;;;;;;;5082951;28;20675;-78
2022/08/23 01:58:59;;;;;;;2.53;1.80;;;;;;;;;;5069443;28;20177;-79
2022/08/23 02:01:29;;;;;;;3.33;2.27;;;;;;;;;;5069813;28;20606;-78
2022/08/23 02:03:56;;;;;;;3.00;1.83;;;;;;;;;;5077145;28;20208;-78
2022/08/23 02:06:22;;;;;;;2.10;1.90;;;;;;;;;;5080455;28;20209;-79
2022/08/23 02:09:01;;;;;;;2.00;1.80;;;;;;;;;;5092197;28;20740;-78
2022/08/23 02:11:32;;;;;;;2.97;1.90;;;;;;;;;;5090808;28;20172;-78
2022/08/23 02:14:00;;;;;;;3.10;2.00;;;;;;;;;;5087880;28;20691;-79
2022/08/23 02:16:33;;;;;;;3.03;2.13;;;;;;;;;;5092985;28;20204;-78
2022/08/23 02:19:01;;;;;;;3.20;2.10;;;;;;;;;;5093028;28;20711;-79
2022/08/23 02:21:30;;;;;;;2.80;2.17;;;;;;;;;;5071727;28;20196;-79
2022/08/23 02:23:57;;;;;;;3.00;2.07;;;;;;;;;;5083861;28;20271;-78
2022/08/23 02:26:23;;;;;;;3.13;2.03;;;;;;;;;;5071469;28;20604;-79
2022/08/23 02:28:51;;;;;;;2.57;2.13;;;;;;;;;;5092289;28;20223;-79
2022/08/23 02:31:17;;;;;;;2.23;2.00;;;;;;;;;;5091080;28;20208;-79
2022/08/23 02:33:43;;;;;;;4.03;1.80;;;;;;;;;;5075279;28;20219;-79
2022/08/23 02:36:11;;;;;;;3.23;1.93;;;;;;;;;;5086172;28;20211;-78
2022/08/23 02:38:38;;;;;;;3.30;2.10;;;;;;;;;;5089425;28;20542;-78
2022/08/23 02:41:05;;;;;;;3.37;2.33;;;;;;;;;;5090435;28;20270;-78
2022/08/23 02:43:32;;;;;;;2.67;1.90;;;;;;;;;;5089932;28;20207;-79
2022/08/23 02:45:59;;;;;;;2.27;2.00;;;;;;;;;;5087428;28;20176;-78
2022/08/23 02:48:26;;;;;;;2.53;2.00;;;;;;;;;;5088955;28;20205;-79
2022/08/23 02:51:02;;;;;;;2.77;2.10;;;;;;;;;;5089212;28;20177;-78
2022/08/23 02:53:29;;;;;;;2.70;2.03;;;;;;;;;;5091118;28;20203;-79
2022/08/23 02:55:56;;;;;;;2.53;2.10;;;;;;;;;;5053914;28;20177;-78
2022/08/23 02:58:22;;;;;;;3.43;2.20;;;;;;;;;;5089082;28;20297;-78
2022/08/23 03:00:49;;;;;;;2.33;2.07;;;;;;;;;;5081308;28;20263;-78
2022/08/23 03:03:16;;;;;;;2.80;1.90;;;;;;;;;;5091467;28;20184;-78
2022/08/23 03:05:43;;;;;;;2.27;2.07;;;;;;;;;;5084555;28;20208;-78
2022/08/23 03:08:10;;;;;;;2.90;2.10;;;;;;;;;;5089089;28;20196;-78
2022/08/23 03:10:46;;;;;;;2.17;1.70;;;;;;;;;;5074254;28;20192;-79
2022/08/23 03:13:12;;;;;;;2.27;2.00;;;;;;;;;;5087663;28;20215;-78
2022/08/23 03:15:39;;;;;;;3.10;2.20;;;;;;;;;;5093482;28;20189;-78
2022/08/23 03:18:05;;;;;;;3.80;2.30;;;;;;;;;;5088771;28;20248;-78
2022/08/23 03:20:32;;;;;;;2.20;2.00;;;;;;;;;;5091237;28;20204;-78
2022/08/23 03:23:00;;;;;;;4.17;2.40;;;;;;;;;;5096045;28;20227;-78
2022/08/23 03:25:26;;;;;;;3.20;2.20;;;;;;;;;;5078019;28;20659;-78
2022/08/23 03:28:03;;;;;;;2.73;2.00;;;;;;;;;;5096497;28;20207;-79
2022/08/23 03:30:30;;;;;;;2.20;2.00;;;;;;;;;;5072375;28;20188;-81
2022/08/23 03:32:59;;;;;;;3.67;2.40;;;;;;;;;;5075465;28;20204;-78
2022/08/23 03:35:26;;;;;;;2.60;2.10;;;;;;;;;;5088106;28;20254;-78
2022/08/23 03:37:53;;;;;;;3.30;2.33;;;;;;;;;;5089955;28;20211;-78
2022/08/23 03:40:21;;;;;;;4.27;2.73;;;;;;;;;;5095541;28;20177;-79
2022/08/23 03:42:49;;;;;;;6.93;3.10;;;;;;;;;;5074986;28;20212;-79
2022/08/23 03:45:15;;;;;;;2.87;2.50;;;;;;;;;;5079864;28;20181;-79
2022/08/23 03:47:42;;;;;;;2.50;2.30;;;;;;;;;;5092973;28;20640;-79
2022/08/23 03:50:09;;;;;;;2.73;2.40;;;;;;;;;;5095909;28;20180;-78
2022/08/23 03:52:36;;;;;;;3.27;2.40;;;;;;;;;;5100837;28;20200;-78
2022/08/23 03:55:03;;;;;;;2.77;2.30;;;;;;;;;;5071721;28;20711;-78
2022/08/23 03:57:31;;;;;;;2.93;2.23;;;;;;;;;;5100637;28;20203;-78
2022/08/23 03:59:58;;;;;;;3.73;2.33;;;;;;;;;;5086108;28;20644;-79
2022/08/23 04:02:26;;;;;;;4.10;2.30;;;;;;;;;;5082923;28;20200;-78
2022/08/23 04:04:52;;;;;;;3.88;2.40;;;;;;;;;;5081322;28;20429;-80
2022/08/23 04:07:50;;;;;;;4.90;2.33;;;;;;;;;;5078597;28;20181;-79
2022/08/23 04:10:19;;;;;;;4.65;2.50;;;;;;;;;;5088710;28;20405;-78
2022/08/23 04:12:48;;;;;;;2.90;2.30;;;;;;;;;;5088805;28;20432;-79
2022/08/23 04:15:19;;;;;;;3.70;2.40;;;;;;;;;;5093518;28;20259;-79
2022/08/23 04:17:47;;;;;;;2.97;2.30;;;;;;;;;;5089108;28;20411;-78
2022/08/23 04:20:13;;;;;;;2.40;2.20;;;;;;;;;;5071842;28;20181;-78
2022/08/23 04:22:54;;;;;;;3.10;2.53;;;;;;;;;;5088529;28;20211;-78
2022/08/23 04:25:23;;;;;;;4.43;2.77;;;;;;;;;;5081890;28;20182;-78
2022/08/23 04:27:49;;;;;;;3.97;2.80;;;;;;;;;;5087181;28;20183;-78
2022/08/23 04:30:18;;;;;;;5.10;2.53;;;;;;;;;;5087433;28;20220;-78
2022/08/23 04:32:45;;;;;;;3.93;2.80;;;;;;;;;;5062736;28;20813;-78
2022/08/23 04:35:12;;;;;;;6.37;3.07;;;;;;;;;;5089993;28;20226;-78
2022/08/23 04:37:38;;;;;;;4.37;3.00;;;;;;;;;;5099111;28;20201;-78
2022/08/23 04:42:51;;;;;;;3.30;2.93;;;;;;;;;;5090340;28;20200;-79
2022/08/23 04:45:18;;;;;;;4.43;3.20;;;;;;;;;;5068290;28;20204;-78
2022/08/23 04:47:48;;;;;;;3.63;2.60;;;;;;;;;;5088433;28;20173;-78
2022/08/23 04:50:15;;;;;;;3.57;2.73;;;;;;;;;;5082982;28;20192;-78
2022/08/23 04:53:07;;;;;;;3.60;2.63;;;;;;;;;;5088135;28;20224;-78
2022/08/23 04:55:39;;;;;;;3.33;2.70;;;;;;;;;;5073003;28;20210;-78
2022/08/23 04:58:06;;;;;;;4.97;2.80;;;;;;;;;;5089809;28;20329;-79
2022/08/23 05:00:39;;;;;;;3.80;2.87;;;;;;;;;;5084506;28;20550;-78
2022/08/23 05:03:06;;;;;;;4.03;2.97;;;;;;;;;;5071256;28;20200;-78
2022/08/23 05:05:32;;;;;;;5.57;2.77;;;;;;;;;;5073417;28;20262;-79
2022/08/23 05:07:59;;;;;;;5.57;2.80;;;;;;;;;;5092598;28;20181;-78
2022/08/23 05:10:26;;;;;;;4.30;2.87;;;;;;;;;;5092805;28;20265;-78
2022/08/23 05:12:53;;;;;;;6.17;3.23;;;;;;;;;;5086808;28;20217;-78
2022/08/23 05:15:21;;;;;;;3.67;3.10;;;;;;;;;;5091570;28;20195;-78
2022/08/23 05:17:53;;;;;;;4.70;3.03;;;;;;;;;;5078158;28;20249;-77
2022/08/23 05:20:19;;;;;;;4.23;2.60;;;;;;;;;;5091279;28;20212;-78
2022/08/23 05:22:46;;;;;;;2.90;2.57;;;;;;;;;;5071130;28;20250;-76
2022/08/23 05:25:17;;;;;;;3.27;2.97;;;;;;;;;;5087326;28;20184;-77
2022/08/23 05:27:45;;;;;;;5.47;3.13;;;;;;;;;;5076484;28;20694;-75
2022/08/23 05:30:11;;;;;;;3.53;2.90;;;;;;;;;;5093732;28;20202;-77
2022/08/23 05:32:38;;;;;;;5.63;3.20;;;;;;;;;;5079095;28;20212;-75
2022/08/23 05:35:05;;;;;;;4.43;3.00;;;;;;;;;;5075015;28;20189;-76
2022/08/23 05:37:34;;;;;;;6.03;3.40;;;;;;;;;;5090994;28;20204;-75
2022/08/23 05:40:01;;;;;;;7.40;3.23;;;;;;;;;;5075444;28;20193;-75
2022/08/23 05:42:30;;;;;;;6.70;3.00;;;;;;;;;;5094965;28;20207;-77
2022/08/23 05:44:57;;;;;;;4.57;3.17;;;;;;;;;;5093467;28;20223;-75
2022/08/23 05:47:25;;;;;;;3.73;2.60;;;;;;;;;;5094312;28;20237;-78
2022/08/23 05:50:13;;;;;;;3.63;2.80;;;;;;;;;;5074405;28;20196;-76
2022/08/23 05:52:40;;;;;;;3.20;2.63;;;;;;;;;;5051672;28;20197;-75
2022/08/23 05:55:06;;;;;;;7.10;3.10;;;;;;;;;;5092743;28;20245;-76
2022/08/23 05:57:55;;;;;;;5.67;3.00;;;;;;;;;;5076414;28;20215;-74
2022/08/23 06:00:21;;;;;;;7.03;3.33;;;;;;;;;;5056900;28;20192;-74
2022/08/23 06:02:56;;;;;;;5.73;2.97;;;;;;;;;;5086456;28;20239;-74
2022/08/23 06:05:22;;;;;;;4.33;3.10;;;;;;;;;;5072025;28;20180;-77
2022/08/23 06:07:49;;;;;;;5.33;3.40;;;;;;;;;;5076795;28;20195;-72
2022/08/23 06:10:19;;;;;;;8.57;3.53;;;;;;;;;;5097843;28;20185;-74
2022/08/23 06:12:49;;;;;;;4.93;3.73;;;;;;;;;;5082481;28;20216;-75
2022/08/23 06:15:16;;;;;;;7.70;3.57;;;;;;;;;;5091036;28;20176;-74
2022/08/23 06:17:42;;;;;;;4.57;3.20;;;;;;;;;;5075719;28;20231;-74
2022/08/23 06:20:09;;;;;;;4.10;2.67;;;;;;;;;;5085275;28;20226;-73
2022/08/23 06:22:56;;;;;;;4.80;3.20;;;;;;;;;;5090871;28;20200;-73
2022/08/23 06:25:22;;;;;;;5.67;2.97;;;;;;;;;;5069058;28;20209;-74
2022/08/23 06:28:09;;;;;;;6.30;3.13;;;;;;;;;;5074882;28;20193;-74
2022/08/23 06:30:37;;;;;;;4.77;2.97;;;;;;;;;;5084656;28;20177;-73
2022/08/23 06:33:13;;;;;;;5.03;2.97;;;;;;;;;;5091438;28;20208;-74
2022/08/23 06:35:45;;;;;;;3.47;3.10;;;;;;;;;;5093381;28;20173;-74
2022/08/23 06:38:18;;;;;;;5.00;2.93;;;;;;;;;;5093715;28;20619;-74
2022/08/23 06:40:45;;;;;;;5.37;3.30;;;;;;;;;;5088658;28;20176;-74
2022/08/23 06:43:37;;;;;;;7.30;3.30;;;;;;;;;;5053164;28;20249;-74
2022/08/23 06:46:23;;;;;;;6.03;3.10;;;;;;;;;;5074370;28;20177;-73
2022/08/23 06:48:50;;;;;;;6.63;3.33;;;;;;;;;;5082535;28;20645;-73
2022/08/23 06:51:31;;;;;;;4.20;3.00;;;;;;;;;;5060027;28;20718;-74
2022/08/23 06:54:12;;;;;;;4.37;3.27;;;;;;;;;;5093796;28;20200;-76
2022/08/23 06:56:48;;;;;;;4.27;3.10;;;;;;;;;;5095740;28;20204;-73
2022/08/23 06:59:22;;;;;;;4.97;3.30;;;;;;;;;;5088670;28;20181;-73
2022/08/23 07:02:13;;;;;;;3.50;3.20;;;;;;;;;;5076101;28;20173;-74
2022/08/23 07:04:57;;;;;;;3.50;2.80;;;;;;;;;;5079846;28;20570;-73
2022/08/23 07:07:50;;;;;;;5.67;2.87;;;;;;;;;;5080004;28;20248;-76
2022/08/23 07:10:18;;;;;;;4.10;3.13;;;;;;;;;;5087342;28;20687;-73
2022/08/23 07:12:44;;;;;;;4.43;3.33;;;;;;;;;;5094676;28;20250;-73
2022/08/23 07:15:12;;;;;;;4.37;3.30;;;;;;;;;;5095803;28;20644;-74
2022/08/23 07:17:41;;;;;;;5.80;3.20;;;;;;;;;;5109157;28;20207;-75
2022/08/23 07:20:08;;;;;;;4.40;3.00;;;;;;;;;;5096766;28;20168;-73
2022/08/23 07:22:37;;;;;;;6.23;3.20;;;;;;;;;;5093205;28;20200;-76
2022/08/23 07:25:03;;;;;;;4.57;3.40;;;;;;;;;;5075376;28;20180;-73
2022/08/23 07:27:32;;;;;;;4.57;3.13;;;;;;;;;;5072742;28;20227;-73
2022/08/23 07:30:05;;;;;;;5.17;2.87;;;;;;;;;;5072874;28;20671;-74
2022/08/23 07:32:32;;;;;;;6.83;3.43;;;;;;;;;;5066302;28;20551;-73
2022/08/23 07:35:06;;;;;;;5.40;2.90;;;;;;;;;;5069931;28;20256;-75
2022/08/23 07:37:33;;;;;;;4.90;2.90;;;;;;;;;;5069091;28;20224;-76
2022/08/23 07:40:02;;;;;;;4.57;2.87;;;;;;;;;;5084162;28;20649;-74
2022/08/23 07:42:29;;;;;;;5.10;3.40;;;;;;;;;;5047524;28;20196;-76
2022/08/23 07:44:56;;;;;;;3.00;2.70;;;;;;;;;;5063730;28;20176;-75
2022/08/23 07:47:27;;;;;;;6.33;2.90;;;;;;;;;;5086246;28;20177;-74
2022/08/23 07:49:55;;;;;;;6.70;3.53;;;;;;;;;;5084835;28;20644;-73
2022/08/23 07:52:21;;;;;;;6.13;2.97;;;;;;;;;;5089892;28;20292;-74
2022/08/23 07:54:48;;;;;;;8.53;3.63;;;;;;;;;;5087015;28;20321;-77
2022/08/23 07:57:40;;;;;;;10.93;3.40;;;;;;;;;;5063079;28;20355;-75
2022/08/23 08:00:21;;;;;;;6.53;3.57;;;;;;;;;;5090844;28;20195;-74
2022/08/23 08:02:58;;;;;;;6.30;3.00;;;;;;;;;;5073466;28;20299;-77
2022/08/23 08:05:32;;;;;;;6.40;3.43;;;;;;;;;;5088305;28;20187;-73
2022/08/23 08:07:59;;;;;;;4.33;3.40;;;;;;;;;;5089183;28;20180;-75
2022/08/23 08:10:25;;;;;;;5.60;3.33;;;;;;;;;;5087350;28;20181;-74
2022/08/23 08:12:52;;;;;;;8.20;3.40;;;;;;;;;;5077823;28;20216;-76
2022/08/23 08:15:19;;;;;;;5.80;2.90;;;;;;;;;;5061308;28;20175;-74
2022/08/23 08:17:51;;;;;;;3.80;2.90;;;;;;;;;;5066376;28;20202;-74
2022/08/23 08:20:18;;;;;;;7.40;3.13;;;;;;;;;;5079135;28;20177;-74
2022/08/23 08:23:23;;;;;;;6.00;3.03;;;;;;;;;;5073936;28;20204;-76
2022/08/23 08:26:17;;;;;;;5.37;2.90;;;;;;;;;;5080203;28;20220;-74
2022/08/23 08:28:51;;;;;;;4.43;3.10;;;;;;;;;;5070526;28;20197;-74
2022/08/23 08:31:18;;;;;;;6.00;2.90;;;;;;;;;;5054828;28;20188;-74
2022/08/23 08:33:44;;;;;;;4.90;2.80;;;;;;;;;;5078492;28;20236;-74
2022/08/23 08:36:46;;;;;;;5.20;3.13;;;;;;;;;;5094936;28;20173;-74
2022/08/23 08:39:19;;;;;;;4.30;3.07;;;;;;;;;;5054557;28;20191;-74
2022/08/23 08:42:07;;;;;;;5.97;3.10;;;;;;;;;;5093485;28;20635;-74
2022/08/23 08:44:45;;;;;;;6.07;3.03;;;;;;;;;;5092715;28;20177;-74
2022/08/23 08:47:32;;;;;;;4.03;3.13;;;;;;;;;;5071811;28;20191;-74
2022/08/23 08:50:01;;;;;;;6.00;3.40;;;;;;;;;;5076613;28;20176;-76
2022/08/23 08:52:34;;;;;;;5.13;3.30;;;;;;;;;;5085883;28;20201;-74
2022/08/23 08:55:08;;;;;;;6.97;3.50;;;;;;;;;;5082521;28;20196;-74
2022/08/23 08:57:38;;;;;;;4.60;3.57;;;;;;;;;;5072308;28;20679;-74
2022/08/23 09:00:09;;;;;;;4.87;3.63;;;;;;;;;;5095406;28;20184;-74
2022/08/23 09:02:37;;;;;;;5.57;3.10;;;;;;;;;;5092693;28;20254;-73
2022/08/23 09:05:11;;;;;;;5.10;3.20;;;;;;;;;;5093578;28;20173;-74
2022/08/23 09:07:48;;;;;;;5.77;3.20;;;;;;;;;;5094645;28;20206;-74
2022/08/23 09:10:14;;;;;;;3.70;3.33;;;;;;;;;;5093447;28;20226;-77
2022/08/23 09:12:57;;;;;;;5.00;2.90;;;;;;;;;;5061412;28;20701;-75
2022/08/23 09:15:38;;;;;;;7.47;3.60;;;;;;;;;;5089806;28;20186;-75
2022/08/23 09:18:09;;;;;;;7.03;3.60;;;;;;;;;;5054043;28;20228;-73
2022/08/23 09:20:37;;;;;;;4.47;3.30;;;;;;;;;;5084841;28;20180;-74
2022/08/23 09:23:09;;;;;;;5.87;3.07;;;;;;;;;;5093336;28;20198;-75
2022/08/23 09:25:38;;;;;;;3.60;3.20;;;;;;;;;;5078764;28;20179;-74
2022/08/23 09:28:15;;;;;;;5.37;3.30;;;;;;;;;;5078028;28;20192;-76
2022/08/23 09:30:47;;;;;;;3.80;3.37;;;;;;;;;;5074595;28;20181;-76
2022/08/23 09:33:17;;;;;;;4.77;3.10;;;;;;;;;;5084551;28;20273;-74
2022/08/23 09:35:51;;;;;;;4.40;3.50;;;;;;;;;;5076112;28;20607;-74
2022/08/23 09:38:19;;;;;;;5.77;3.07;;;;;;;;;;5092837;28;20192;-74
2022/08/23 09:40:50;;;;;;;4.83;3.23;;;;;;;;;;5069268;28;20601;-74
2022/08/23 09:43:23;;;;;;;4.87;3.30;;;;;;;;;;5053324;28;20201;-74
2022/08/23 09:45:49;;;;;;;4.37;3.23;;;;;;;;;;5065557;28;20268;-73
2022/08/23 09:48:38;;;;;;;4.27;2.83;;;;;;;;;;5060573;28;20294;-74
2022/08/23 09:51:07;;;;;;;4.47;3.20;;;;;;;;;;5075195;28;20887;-74
2022/08/23 09:53:34;;;;;;;4.67;3.00;;;;;;;;;;5084313;28;20283;-74
2022/08/23 09:56:10;;;;;;;8.47;3.33;;;;;;;;;;5056040;28;20189;-74
2022/08/23 09:58:42;;;;;;;4.23;3.27;;;;;;;;;;5078758;28;20319;-74
2022/08/23 10:01:12;;;;;;;5.97;3.07;;;;;;;;;;5087487;28;20219;-74
2022/08/23 10:03:41;;;;;;;4.43;3.30;;;;;;;;;;5081944;28;20260;-74
2022/08/23 10:06:30;;;;;;;4.10;3.27;;;;;;;;;;5088415;28;20210;-74
2022/08/23 10:09:03;;;;;;;3.00;2.70;;;;;;;;;;5090922;28;20176;-74
2022/08/23 10:11:33;;;;;;;4.33;3.20;;;;;;;;;;5081109;28;20725;-74
2022/08/23 10:14:00;;;;;;;4.27;3.00;;;;;;;;;;5089653;28;20303;-76
2022/08/23 10:16:33;;;;;;;3.60;3.20;;;;;;;;;;5076505;28;20279;-73
2022/08/23 10:19:12;;;;;;;4.17;3.20;;;;;;;;;;5087796;28;20210;-75
2022/08/23 10:21:50;;;;;;;3.27;2.97;;;;;;;;;;5089127;28;20182;-74
2022/08/23 10:24:27;;;;;;;3.77;2.60;;;;;;;;;;5072337;28;20209;-74
2022/08/23 10:29:36;;;;;;;4.27;2.93;;;;;;;;;;5070940;28;20187;-74
2022/08/23 10:30:04;;;;;;;3.30;3.00;;;;;;;;;;5084789;28;20183;-74
2022/08/23 10:32:41;;;;;;;3.73;3.00;;;;;;;;;;5056179;28;20204;-74
2022/08/23 10:35:14;;;;;;;3.20;2.90;;;;;;;;;;5076249;28;20192;-77
2022/08/23 10:38:06;;;;;;;5.60;3.20;;;;;;;;;;5090093;28;20198;-71
2022/08/23 10:41:08;;;;;;;5.73;3.20;;;;;;;;;;5072848;28;20216;-76
2022/08/23 10:43:37;;;;;;;3.53;3.23;;;;;;;;;;5029802;28;20287;-76
2022/08/23 10:46:06;;;;;;;3.63;3.00;;;;;;;;;;5077588;28;20192;-75
2022/08/23 10:48:56;;;;;;;4.93;3.20;;;;;;;;;;5090571;28;20771;-77
2022/08/23 10:51:40;;;;;;;4.40;3.07;;;;;;;;;;5069285;28;20282;-76
2022/08/23 10:54:08;;;;;;;4.73;2.87;;;;;;;;;;5073319;28;20745;-76
2022/08/23 10:56:35;;;;;;;4.07;2.90;;;;;;;;;;5088883;28;20196;-77
2022/08/23 10:59:03;;;;;;;4.33;3.00;;;;;;;;;;5090328;28;20207;-77
2022/08/23 11:01:31;;;;;;;3.73;2.90;;;;;;;;;;5091893;28;20188;-76
2022/08/23 11:03:57;;;;;;;3.80;2.80;;;;;;;;;;5075790;28;20219;-77
2022/08/23 11:06:24;;;;;;;4.10;2.90;;;;;;;;;;5090843;28;20306;-76
2022/08/23 11:08:59;;;;;;;3.00;2.53;;;;;;;;;;5066235;28;20262;-76
2022/08/23 11:11:38;;;;;;;4.73;2.90;;;;;;;;;;5089467;28;20214;-77
2022/08/23 11:14:05;;;;;;;4.70;2.83;;;;;;;;;;5079534;28;20205;-76
2022/08/23 11:16:32;;;;;;;4.73;2.90;;;;;;;;;;5081501;28;20235;-77
2022/08/23 11:18:59;;;;;;;5.77;2.87;;;;;;;;;;5083699;28;20176;-77
2022/08/23 11:21:39;;;;;;;3.00;2.60;;;;;;;;;;5084150;28;20180;-77
2022/08/23 11:24:11;;;;;;;3.20;2.50;;;;;;;;;;5090373;28;20271;-77
2022/08/23 11:26:39;;;;;;;3.37;2.50;;;;;;;;;;5086976;28;20193;-77
2022/08/23 11:29:06;;;;;;;4.03;2.83;;;;;;;;;;5089910;28;20628;-77
2022/08/23 11:31:39;;;;;;;4.27;2.83;;;;;;;;;;5084930;28;20192;-77
2022/08/23 11:34:11;;;;;;;5.80;2.90;;;;;;;;;;5082113;28;20326;-77
2022/08/23 11:36:37;;;;;;;4.40;2.77;;;;;;;;;;5072488;28;20739;-77
2022/08/23 11:39:09;;;;;;;4.33;2.63;;;;;;;;;;5086409;28;20535;-77
2022/08/23 11:41:55;;;;;;;2.80;2.60;;;;;;;;;;5087444;28;20176;-77
2022/08/23 11:44:27;;;;;;;3.20;2.63;;;;;;;;;;5091829;28;20204;-77
2022/08/23 11:46:54;;;;;;;2.90;2.53;;;;;;;;;;5070189;28;20203;-77
2022/08/23 11:49:26;;;;;;;3.53;2.60;;;;;;;;;;5085251;28;20241;-77
2022/08/23 11:52:11;;;;;;;3.30;3.00;;;;;;;;;;5085440;28;20189;-77
2022/08/23 11:54:56;;;;;;;2.80;2.50;;;;;;;;;;5087876;28;20707;-77
2022/08/23 11:57:35;;;;;;;4.27;2.87;;;;;;;;;;5078769;28;20620;-75
2022/08/23 12:00:12;;;;;;;3.03;2.60;;;;;;;;;;5083796;28;20183;-77
2022/08/23 12:02:38;;;;;;;5.50;2.70;;;;;;;;;;5088935;28;20621;-81
2022/08/23 12:05:19;;;;;;;3.47;2.67;;;;;;;;;;5082706;28;20271;-74
2022/08/23 12:07:51;;;;;;;2.90;2.60;;;;;;;;;;5089232;28;20186;-78
2022/08/23 12:10:23;;;;;;;4.63;2.60;;;;;;;;;;5092432;28;20610;-74
2022/08/23 12:13:09;;;;;;;3.47;2.80;;;;;;;;;;5094714;28;20223;-76
2022/08/23 12:15:55;;;;;;;5.20;2.67;;;;;;;;;;5092527;28;20270;-74
2022/08/23 12:18:21;;;;;;;3.13;2.60;;;;;;;;;;5094168;28;20195;-74
2022/08/23 12:20:48;;;;;;;3.70;2.30;;;;;;;;;;5092511;28;20188;-74
2022/08/23 12:23:17;;;;;;;2.93;2.50;;;;;;;;;;5094033;28;20566;-74
2022/08/23 12:25:45;;;;;;;2.77;2.37;;;;;;;;;;5086427;28;20580;-74
2022/08/23 12:28:30;;;;;;;4.27;2.10;;;;;;;;;;5095491;28;20265;-77
2022/08/23 12:31:03;;;;;;;2.80;2.40;;;;;;;;;;5089377;28;20211;-74
2022/08/23 12:33:32;;;;;;;2.77;2.43;;;;;;;;;;5070759;28;20773;-77
2022/08/23 12:36:07;;;;;;;3.23;2.50;;;;;;;;;;5093410;28;20238;-74
2022/08/23 12:38:39;;;;;;;2.20;2.00;;;;;;;;;;5092070;28;20204;-76
2022/08/23 12:41:32;;;;;;;2.53;2.17;;;;;;;;;;5075266;28;20184;-75
2022/08/23 12:44:00;;;;;;;3.13;2.50;;;;;;;;;;5091167;28;20224;-74
2022/08/23 12:46:42;;;;;;;2.90;2.20;;;;;;;;;;5108242;28;20191;-74
2022/08/23 12:49:21;;;;;;;4.33;2.30;;;;;;;;;;5065571;28;20189;-74
2022/08/23 12:51:48;;;;;;;2.40;2.00;;;;;;;;;;5083032;28;20277;-74
2022/08/23 12:54:17;;;;;;;2.50;2.00;;;;;;;;;;5088966;28;20202;-75
2022/08/23 12:56:47;;;;;;;3.10;2.27;;;;;;;;;;5091504;28;20214;-74
2022/08/23 12:59:29;;;;;;;2.33;2.13;;;;;;;;;;5090344;28;20174;-74
2022/08/23 13:01:55;;;;;;;2.70;2.17;;;;;;;;;;5085547;28;20199;-74
2022/08/23 13:04:21;;;;;;;3.07;2.10;;;;;;;;;;5090670;28;20204;-75
2022/08/23 13:06:54;;;;;;;4.50;2.40;;;;;;;;;;5098465;28;20184;-74
2022/08/23 13:09:24;;;;;;;2.17;2.00;;;;;;;;;;5095904;28;20241;-74
2022/08/23 13:11:51;;;;;;;4.50;2.40;;;;;;;;;;5089129;28;20229;-74
2022/08/23 13:14:36;;;;;;;3.47;2.30;;;;;;;;;;5081464;28;20209;-74
2022/08/23 13:17:30;;;;;;;4.80;2.00;;;;;;;;;;5087581;28;20197;-74
2022/08/23 13:20:03;;;;;;;3.20;2.57;;;;;;;;;;5085455;28;20195;-74
2022/08/23 13:22:31;;;;;;;2.23;2.03;;;;;;;;;;5105593;27;20241;-75
2022/08/23 13:24:57;;;;;;;2.53;2.30;;;;;;;;;;5094999;28;20213;-78
2022/08/23 13:27:28;;;;;;;2.67;2.30;;;;;;;;;;5069220;28;20722;-77
2022/08/23 13:30:00;;;;;;;2.08;1.88;;;;;;;;;;5094491;28;20187;-75
2022/08/23 13:32:26;;;;;;;2.45;2.17;;;;;;;;;;5091866;28;20216;-75
2022/08/23 13:34:52;;;;;;;3.78;2.15;;;;;;;;;;5089843;28;20660;-75
2022/08/23 13:37:29;;;;;;;3.30;2.22;;;;;;;;;;5078042;28;20617;-75
2022/08/23 13:40:15;;;;;;;3.10;2.08;;;;;;;;;;5092914;28;20177;-75
2022/08/23 13:42:47;;;;;;;4.40;2.17;;;;;;;;;;5091343;28;20294;-80
2022/08/23 13:45:24;;;;;;;2.15;1.95;;;;;;;;;;5092266;28;20230;-75
2022/08/23 13:47:54;;;;;;;4.65;2.13;;;;;;;;;;5083855;28;20183;-75
2022/08/23 13:50:25;;;;;;;2.22;2.00;;;;;;;;;;5075195;28;20166;-75
2022/08/23 13:52:52;;;;;;;3.97;2.25;;;;;;;;;;5084890;28;20281;-78
2022/08/23 13:55:18;;;;;;;2.22;2.00;;;;;;;;;;5091286;28;20176;-78
2022/08/23 13:57:44;;;;;;;2.35;2.10;;;;;;;;;;5094121;28;20271;-78
2022/08/23 14:00:11;;;;;;;2.50;1.88;;;;;;;;;;5094874;28;20174;-77
2022/08/23 14:02:38;;;;;;;3.78;2.00;;;;;;;;;;5091606;28;20201;-75
2022/08/23 14:05:05;;;;;;;2.40;2.20;;;;;;;;;;5076529;28;20677;-77
2022/08/23 14:07:32;;;;;;;4.18;2.20;;;;;;;;;;5094013;28;20181;-75
2022/08/23 14:09:58;;;;;;;3.17;1.77;;;;;;;;;;5094232;28;20214;-76
2022/08/23 14:12:29;;;;;;;3.00;2.30;;;;;;;;;;5099589;28;20670;-76
2022/08/23 14:14:56;;;;;;;2.20;2.00;;;;;;;;;;5095221;28;20180;-75
2022/08/23 14:17:22;;;;;;;2.72;2.10;;;;;;;;;;5093858;28;20198;-75
2022/08/23 14:19:49;;;;;;;2.35;2.10;;;;;;;;;;5090248;28;20275;-75
2022/08/23 14:22:16;;;;;;;3.78;2.10;;;;;;;;;;5099493;28;20185;-79
2022/08/23 14:24:43;;;;;;;3.78;2.28;;;;;;;;;;5078482;28;20181;-75
2022/08/23 14:27:09;;;;;;;3.00;2.00;;;;;;;;;;5097443;28;20230;-75
2022/08/23 14:29:36;;;;;;;2.42;1.95;;;;;;;;;;5081701;28;20219;-76
2022/08/23 14:32:02;;;;;;;2.85;1.95;;;;;;;;;;5095076;28;20183;-75
2022/08/23 14:34:29;;;;;;;3.65;2.15;;;;;;;;;;5076561;28;20274;-75
2022/08/23 14:36:55;;;;;;;3.13;1.88;;;;;;;;;;5098026;28;20211;-75
2022/08/23 14:39:22;;;;;;;3.83;1.98;;;;;;;;;;5098733;28;20194;-75
2022/08/23 14:41:49;;;;;;;4.05;1.92;;;;;;;;;;5096121;27;20205;-77
2022/08/23 14:44:16;;;;;;;4.30;2.00;;;;;;;;;;5090156;28;20194;-75
2022/08/23 14:46:43;;;;;;;3.03;2.10;;;;;;;;;;5090008;28;20640;-75
2022/08/23 14:49:09;;;;;;;3.08;1.95;;;;;;;;;;5095286;28;20259;-75
2022/08/23 14:51:38;;;;;;;2.05;1.80;;;;;;;;;;5092869;28;20174;-78
2022/08/23 14:54:05;;;;;;;3.85;2.08;;;;;;;;;;5094324;28;20578;-78
2022/08/23 14:56:32;;;;;;;3.03;2.00;;;;;;;;;;5095274;28;20187;-75
2022/08/23 14:58:58;;;;;;;2.30;1.75;;;;;;;;;;5102759;28;20726;-78
2022/08/23 15:01:24;;;;;;;2.92;1.92;;;;;;;;;;5090499;28;20181;-76
2022/08/23 15:03:51;;;;;;;2.80;1.80;;;;;;;;;;5091272;28;20206;-78
2022/08/23 15:06:17;;;;;;;4.57;2.22;;;;;;;;;;5089314;28;20190;-75
2022/08/23 15:08:44;;;;;;;2.22;1.80;;;;;;;;;;5092881;28;20608;-74
2022/08/23 15:11:11;;;;;;;2.95;1.85;;;;;;;;;;5093635;28;20180;-77
2022/08/23 15:13:38;;;;;;;2.03;1.77;;;;;;;;;;5105473;28;20226;-75
2022/08/23 15:16:06;;;;;;;4.75;2.22;;;;;;;;;;5087906;28;20262;-74